Time;durP1;ratioP1;P1;durP2;ratioP2;P2;SDS_P1;SDS_P2;PMS_P1;PMS_P2;Temp;Humidity;BMP_temperature;BMP_pressure;BME280_temperature;BME280_humidity;BME280_pressure;Samples;Min_cycle;Max_cycle;Signal;HPM_P1;HPM_P2
2022/03/19 00:00:28;;;;;;;0.10;0.10;;;6.00;1.00;226.50;231333.00;;;;5032664;28;20191;-70
2022/03/19 00:02:56;;;;;;;0.10;0.10;;;6.00;1.00;226.50;231333.00;;;;5024372;28;20234;-71
2022/03/19 00:05:25;;;;;;;0.10;0.10;;;6.00;1.00;226.50;231333.00;;;;5026939;28;20252;-71
2022/03/19 00:07:53;;;;;;;0.10;0.10;;;6.00;1.00;226.50;231333.00;;;;5036986;28;20287;-72
2022/03/19 00:10:22;;;;;;;0.10;0.10;;;5.90;1.00;226.50;231333.00;;;;5030772;28;20199;-70
2022/03/19 00:12:50;;;;;;;0.10;0.10;;;5.90;1.00;226.50;231333.00;;;;5022645;28;20223;-69
2022/03/19 00:15:19;;;;;;;0.10;0.10;;;5.90;1.00;226.50;231333.00;;;;5027694;28;20662;-70
2022/03/19 00:17:48;;;;;;;0.10;0.10;;;5.80;1.00;226.50;231333.00;;;;5024956;28;20220;-69
2022/03/19 00:20:16;;;;;;;0.05;0.05;;;5.80;1.00;226.50;231333.00;;;;5035564;28;20217;-71
2022/03/19 00:22:45;;;;;;;0.10;0.10;;;5.70;1.00;226.50;231333.00;;;;5028403;28;20212;-71
2022/03/19 00:25:13;;;;;;;0.10;0.10;;;5.70;1.00;226.50;231333.00;;;;5039011;28;20187;-73
2022/03/19 00:27:41;;;;;;;0.10;0.10;;;5.60;1.00;226.50;231333.00;;;;5030033;28;20202;-73
2022/03/19 00:30:11;;;;;;;0.10;0.10;;;5.60;1.00;226.50;231333.00;;;;5033628;28;20192;-73
2022/03/19 00:32:41;;;;;;;0.10;0.10;;;5.60;1.00;226.50;231333.00;;;;5023456;28;20211;-73
2022/03/19 00:35:10;;;;;;;0.10;0.10;;;5.60;1.00;226.50;231333.00;;;;5029030;28;20669;-73
2022/03/19 00:37:46;;;;;;;0.10;0.10;;;5.50;1.00;226.50;231333.00;;;;5012798;28;20579;-73
2022/03/19 00:40:17;;;;;;;0.10;0.10;;;5.50;1.00;226.50;231333.00;;;;5028856;28;20668;-73
2022/03/19 00:42:47;;;;;;;0.05;0.05;;;5.50;1.00;226.50;231333.00;;;;5026032;28;20223;-73
2022/03/19 00:45:17;;;;;;;0.10;0.10;;;5.40;1.00;226.50;231333.00;;;;5032024;28;20183;-73
2022/03/19 00:47:46;;;;;;;0.10;0.10;;;5.40;1.00;226.50;231333.00;;;;5023211;28;20565;-72
2022/03/19 00:50:14;;;;;;;0.10;0.10;;;5.40;1.00;226.50;231333.00;;;;5029464;28;20187;-72
2022/03/19 00:52:42;;;;;;;0.10;0.10;;;5.30;1.00;226.50;231333.00;;;;5024187;28;20650;-72
2022/03/19 00:55:11;;;;;;;0.10;0.10;;;5.30;1.00;226.50;231333.00;;;;5014225;28;20199;-72
2022/03/19 00:57:41;;;;;;;0.10;0.10;;;5.30;1.00;226.50;231333.00;;;;5012477;28;20243;-71
2022/03/19 01:00:11;;;;;;;0.10;0.10;;;5.30;1.00;226.50;231333.00;;;;5013921;28;20214;-71
2022/03/19 01:02:40;;;;;;;0.10;0.10;;;5.30;1.00;226.50;231333.00;;;;5022816;28;20219;-71
2022/03/19 01:05:13;;;;;;;0.10;0.10;;;5.30;1.00;226.50;231333.00;;;;5010679;28;20199;-71
2022/03/19 01:07:44;;;;;;;0.10;0.10;;;5.20;1.00;226.50;231333.00;;;;5031299;28;20282;-71
2022/03/19 01:10:15;;;;;;;0.10;0.10;;;5.20;1.00;226.50;231333.00;;;;5021168;28;20210;-71
2022/03/19 01:12:44;;;;;;;0.10;0.10;;;5.20;1.00;226.50;231333.00;;;;5022453;28;20578;-71
2022/03/19 01:15:12;;;;;;;0.10;0.10;;;5.10;1.00;226.50;231333.00;;;;5015180;28;20214;-71
2022/03/19 01:17:40;;;;;;;0.10;0.10;;;5.10;1.00;226.50;231333.00;;;;5017584;28;20226;-71
2022/03/19 01:20:12;;;;;;;0.10;0.10;;;4.90;1.00;226.50;231333.00;;;;5026756;28;20179;-71
2022/03/19 01:22:45;;;;;;;0.10;0.10;;;4.90;1.00;226.50;231333.00;;;;5027811;28;20226;-71
2022/03/19 01:25:15;;;;;;;0.10;0.10;;;4.80;1.00;226.50;231333.00;;;;5023305;28;20195;-71
2022/03/19 01:27:45;;;;;;;0.10;0.10;;;4.40;1.00;226.50;231333.00;;;;5027166;28;20639;-71
2022/03/19 01:30:16;;;;;;;0.10;0.10;;;4.30;1.00;226.50;231333.00;;;;5023886;28;20656;-71
2022/03/19 01:32:46;;;;;;;0.10;0.10;;;4.20;1.00;226.50;231333.00;;;;5026052;28;20304;-71
2022/03/19 01:35:18;;;;;;;0.10;0.10;;;4.20;1.00;226.50;231333.00;;;;5023575;28;20195;-71
2022/03/19 01:37:48;;;;;;;0.05;0.05;;;4.10;1.00;226.50;231333.00;;;;5028793;28;20230;-72
2022/03/19 01:40:18;;;;;;;0.05;0.05;;;4.00;1.00;226.50;231333.00;;;;5029461;28;20218;-72
2022/03/19 01:42:49;;;;;;;0.10;0.10;;;3.90;1.00;226.50;231333.00;;;;5024065;28;20234;-71
2022/03/19 01:45:22;;;;;;;0.10;0.10;;;3.90;1.00;226.50;231333.00;;;;5020678;28;20198;-72
2022/03/19 01:47:53;;;;;;;0.10;0.10;;;3.90;1.00;226.50;231333.00;;;;5025249;28;20254;-72
2022/03/19 01:50:24;;;;;;;0.10;0.10;;;3.90;1.00;226.50;231333.00;;;;5017362;28;20686;-72
2022/03/19 01:52:53;;;;;;;0.10;0.10;;;3.80;1.00;226.50;231333.00;;;;5029909;28;20703;-72
2022/03/19 01:55:28;;;;;;;0.10;0.10;;;3.90;1.00;226.50;231333.00;;;;5025571;28;20195;-72
2022/03/19 01:57:58;;;;;;;0.10;0.10;;;4.00;1.00;226.50;231333.00;;;;5023290;28;20229;-71
2022/03/19 02:00:26;;;;;;;0.10;0.10;;;3.80;1.00;226.50;231333.00;;;;5020479;28;20238;-71
2022/03/19 02:02:56;;;;;;;0.10;0.10;;;3.70;1.00;226.50;231333.00;;;;5020211;28;20215;-71
2022/03/19 02:05:25;;;;;;;0.10;0.10;;;3.70;1.00;226.50;231333.00;;;;5028078;28;20237;-71
2022/03/19 02:07:54;;;;;;;0.10;0.10;;;3.60;1.00;226.50;231333.00;;;;5030280;28;20602;-71
2022/03/19 02:10:23;;;;;;;0.10;0.10;;;3.50;1.00;226.50;231333.00;;;;5029855;28;20192;-71
2022/03/19 02:12:55;;;;;;;0.10;0.10;;;3.50;1.00;226.50;231333.00;;;;5015945;28;20207;-71
2022/03/19 02:15:24;;;;;;;0.10;0.10;;;3.50;1.00;226.50;231333.00;;;;5012692;28;20255;-71
2022/03/19 02:17:52;;;;;;;0.10;0.10;;;3.50;1.00;226.50;231333.00;;;;5021392;28;20227;-71
2022/03/19 02:20:21;;;;;;;0.10;0.10;;;3.50;1.00;226.50;231333.00;;;;5022169;28;20191;-71
2022/03/19 02:25:41;;;;;;;0.10;0.10;;;3.40;1.00;226.50;231333.00;;;;5015387;28;20191;-71
2022/03/19 02:28:09;;;;;;;0.10;0.10;;;3.20;1.00;226.50;231333.00;;;;5013687;28;20223;-71
2022/03/19 02:30:39;;;;;;;0.10;0.10;;;3.30;1.00;226.50;231333.00;;;;5028864;28;20200;-71
2022/03/19 02:33:09;;;;;;;0.10;0.10;;;3.10;1.00;226.50;231333.00;;;;5020984;28;20696;-70
2022/03/19 02:35:37;;;;;;;0.10;0.10;;;3.00;1.00;226.50;231333.00;;;;5032910;28;20244;-70
2022/03/19 02:38:07;;;;;;;0.10;0.10;;;2.90;1.00;226.50;231333.00;;;;5033387;28;20636;-69
2022/03/19 02:40:35;;;;;;;0.10;0.10;;;2.90;1.00;226.50;231333.00;;;;5019241;28;20294;-71
2022/03/19 02:43:03;;;;;;;0.10;0.10;;;2.90;1.00;226.50;231333.00;;;;5019228;28;20222;-72
2022/03/19 02:45:31;;;;;;;0.10;0.10;;;3.00;1.00;226.50;231333.00;;;;5022053;28;20199;-69
2022/03/19 02:47:59;;;;;;;0.10;0.10;;;3.00;1.00;226.50;231333.00;;;;5023782;28;20595;-69
2022/03/19 02:50:31;;;;;;;0.10;0.10;;;2.90;1.00;226.50;231333.00;;;;5031260;28;20231;-69
2022/03/19 02:53:03;;;;;;;0.00;0.00;;;2.80;1.00;226.50;231333.00;;;;5024400;28;20219;-69
2022/03/19 02:55:37;;;;;;;0.10;0.10;;;2.90;1.00;226.50;231333.00;;;;5016412;28;20207;-69
2022/03/19 02:58:07;;;;;;;0.10;0.10;;;2.90;1.00;226.50;231333.00;;;;5027425;28;20218;-70
2022/03/19 03:00:36;;;;;;;0.00;0.00;;;3.10;1.00;226.50;231333.00;;;;5027553;28;20208;-69
2022/03/19 03:03:05;;;;;;;0.08;0.08;;;3.20;1.00;226.50;231333.00;;;;5030148;28;20218;-73
2022/03/19 03:05:34;;;;;;;0.10;0.10;;;3.20;1.00;226.50;231333.00;;;;5031110;28;20199;-71
2022/03/19 03:08:03;;;;;;;0.10;0.10;;;3.10;1.00;226.50;231333.00;;;;5018489;28;20275;-71
2022/03/19 03:10:33;;;;;;;0.10;0.10;;;3.00;1.00;226.50;231333.00;;;;5023404;28;20196;-70
2022/03/19 03:13:03;;;;;;;0.10;0.10;;;2.90;1.00;226.50;231333.00;;;;5022555;28;20211;-70
2022/03/19 03:15:32;;;;;;;0.13;0.13;;;2.70;1.00;226.50;231333.00;;;;5015078;28;20206;-70
2022/03/19 03:18:01;;;;;;;0.10;0.10;;;2.70;1.00;226.50;231333.00;;;;5015224;28;20273;-70
2022/03/19 03:20:29;;;;;;;0.10;0.10;;;2.80;1.00;226.50;231333.00;;;;5027417;28;20210;-70
2022/03/19 03:22:57;;;;;;;0.10;0.10;;;2.70;1.00;226.50;231333.00;;;;5022785;28;20242;-70
2022/03/19 03:25:25;;;;;;;0.10;0.10;;;2.70;1.00;226.50;231333.00;;;;5023704;28;20278;-69
2022/03/19 03:27:53;;;;;;;0.10;0.10;;;2.60;1.00;226.50;231333.00;;;;5033285;28;20593;-70
2022/03/19 03:30:22;;;;;;;0.10;0.10;;;2.60;1.00;226.50;231333.00;;;;5029996;28;20195;-70
2022/03/19 03:32:51;;;;;;;0.10;0.10;;;2.50;1.00;226.50;231333.00;;;;5020437;28;20207;-71
2022/03/19 03:35:25;;;;;;;0.10;0.10;;;2.50;1.00;226.50;231333.00;;;;5023248;28;20214;-69
2022/03/19 03:37:53;;;;;;;0.10;0.10;;;2.60;1.00;226.50;231333.00;;;;5022673;28;20722;-70
2022/03/19 03:40:22;;;;;;;0.10;0.10;;;2.80;1.00;226.50;231333.00;;;;5026759;28;20519;-70
2022/03/19 03:42:50;;;;;;;0.00;0.00;;;2.70;1.00;226.50;231333.00;;;;5033414;28;20254;-70
2022/03/19 03:45:18;;;;;;;0.10;0.10;;;2.70;1.00;226.50;231333.00;;;;5016050;28;20549;-72
2022/03/19 03:47:47;;;;;;;0.10;0.10;;;2.60;1.00;226.50;231333.00;;;;5019216;28;20665;-71
2022/03/19 03:50:16;;;;;;;0.10;0.10;;;2.60;1.00;226.50;231333.00;;;;5014851;28;20856;-71
2022/03/19 03:52:43;;;;;;;0.10;0.10;;;2.60;1.00;226.50;231333.00;;;;5031074;28;20207;-71
2022/03/19 03:55:12;;;;;;;0.10;0.10;;;2.60;1.00;226.50;231333.00;;;;5033428;28;20191;-71
2022/03/19 03:57:40;;;;;;;0.10;0.10;;;2.60;1.00;226.50;231333.00;;;;5025852;28;20220;-71
2022/03/19 04:00:10;;;;;;;0.10;0.10;;;2.60;1.00;226.50;231333.00;;;;5032434;28;20747;-71
2022/03/19 04:02:41;;;;;;;0.10;0.10;;;2.60;1.00;226.50;231333.00;;;;5030874;28;20731;-70
2022/03/19 04:05:11;;;;;;;0.10;0.10;;;2.60;1.00;226.50;231333.00;;;;5023010;28;20258;-69
2022/03/19 04:07:39;;;;;;;0.10;0.10;;;2.70;1.00;226.50;231333.00;;;;5022552;28;20211;-70
2022/03/19 04:10:08;;;;;;;0.10;0.10;;;2.70;1.00;226.50;231333.00;;;;5014223;28;20606;-70
2022/03/19 04:12:37;;;;;;;0.10;0.10;;;2.80;1.00;226.50;231333.00;;;;5022089;28;20723;-71
2022/03/19 04:15:07;;;;;;;0.10;0.10;;;2.90;1.00;226.50;231333.00;;;;5023269;28;20196;-71
2022/03/19 04:17:35;;;;;;;0.10;0.10;;;2.90;1.00;226.50;231333.00;;;;5026308;28;20195;-71
2022/03/19 04:20:05;;;;;;;0.10;0.10;;;2.90;1.00;226.50;231333.00;;;;5032140;28;20721;-70
2022/03/19 04:22:36;;;;;;;0.10;0.10;;;3.00;1.00;226.50;231333.00;;;;5031084;28;20219;-71
2022/03/19 04:25:09;;;;;;;0.10;0.10;;;2.90;1.00;226.50;231333.00;;;;5024679;28;20664;-70
2022/03/19 04:27:37;;;;;;;0.10;0.10;;;3.00;1.00;226.50;231333.00;;;;5025051;28;20191;-71
2022/03/19 04:30:08;;;;;;;0.10;0.10;;;3.10;1.00;226.50;231333.00;;;;5014063;28;20207;-70
2022/03/19 04:32:41;;;;;;;0.10;0.10;;;3.10;1.00;226.50;231333.00;;;;5027717;28;20269;-70
2022/03/19 04:38:11;;;;;;;0.10;0.10;;;3.30;1.00;226.50;231333.00;;;;4971152;28;20236;-71
2022/03/19 04:40:41;;;;;;;0.03;0.03;;;3.40;1.00;226.50;231333.00;;;;5015898;28;20208;-72
2022/03/19 04:43:09;;;;;;;0.10;0.10;;;3.50;1.00;226.50;231333.00;;;;5013391;28;20223;-71
2022/03/19 04:45:40;;;;;;;0.10;0.10;;;3.50;1.00;226.50;231333.00;;;;5021300;28;20223;-72
2022/03/19 04:48:09;;;;;;;0.10;0.10;;;3.60;1.00;226.50;231333.00;;;;5023052;28;20550;-71
2022/03/19 04:50:39;;;;;;;0.10;0.10;;;3.60;1.00;226.50;231333.00;;;;5016324;28;20283;-72
2022/03/19 04:53:09;;;;;;;0.10;0.10;;;3.70;1.00;226.50;231333.00;;;;5028100;28;20222;-71
2022/03/19 04:55:40;;;;;;;0.10;0.10;;;3.50;1.00;226.50;231333.00;;;;5019969;28;20208;-73
2022/03/19 04:58:09;;;;;;;0.10;0.10;;;3.60;1.00;226.50;231333.00;;;;5015553;28;20229;-71
2022/03/19 05:00:38;;;;;;;0.10;0.10;;;3.50;1.00;226.50;231333.00;;;;5025261;28;20219;-71
2022/03/19 05:03:07;;;;;;;0.10;0.10;;;3.60;1.00;226.50;231333.00;;;;5019505;28;20586;-72
2022/03/19 05:05:36;;;;;;;0.10;0.10;;;3.50;1.00;226.50;231333.00;;;;5021024;28;20613;-71
2022/03/19 05:08:05;;;;;;;0.10;0.10;;;3.50;1.00;226.50;231333.00;;;;5028674;28;20257;-71
2022/03/19 05:13:20;;;;;;;0.10;0.10;;;3.50;1.00;226.50;231333.00;;;;5014061;28;20567;-70
2022/03/19 05:15:48;;;;;;;0.10;0.10;;;3.50;1.00;226.50;231333.00;;;;5018978;28;20191;-71
2022/03/19 05:18:16;;;;;;;0.10;0.10;;;3.70;1.00;226.50;231333.00;;;;5013936;28;20270;-70
2022/03/19 05:20:44;;;;;;;0.10;0.10;;;3.70;1.00;226.50;231333.00;;;;5022486;28;20917;-70
2022/03/19 05:23:13;;;;;;;0.10;0.10;;;3.90;1.00;226.50;231333.00;;;;5016419;28;20264;-71
2022/03/19 05:25:42;;;;;;;0.10;0.10;;;3.80;1.00;226.50;231333.00;;;;5021306;28;20203;-71
2022/03/19 05:28:10;;;;;;;0.10;0.10;;;3.80;1.00;226.50;231333.00;;;;5025106;28;20188;-71
2022/03/19 05:30:53;;;;;;;0.00;0.00;;;3.80;1.00;226.50;231333.00;;;;5029838;28;20828;-71
2022/03/19 05:34:29;;;;;;;0.10;0.10;;;3.80;1.00;226.50;231333.00;;;;5017054;28;20217;-70
2022/03/19 05:36:11;;;;;;;0.10;0.10;;;3.80;1.00;226.50;231333.00;;;;5017843;28;20237;-71
2022/03/19 05:38:40;;;;;;;0.10;0.10;;;3.80;1.00;226.50;231333.00;;;;5021828;28;20207;-72
2022/03/19 05:41:09;;;;;;;0.10;0.10;;;3.80;1.00;226.50;231333.00;;;;5024363;28;20199;-71
2022/03/19 05:43:37;;;;;;;0.10;0.10;;;3.80;1.00;226.50;231333.00;;;;5006836;28;20650;-71
2022/03/19 05:46:07;;;;;;;0.10;0.10;;;3.90;1.00;226.50;231333.00;;;;5029244;28;20191;-71
2022/03/19 05:48:38;;;;;;;0.10;0.10;;;3.90;1.00;226.50;231333.00;;;;5031834;28;20219;-72
2022/03/19 05:51:06;;;;;;;0.10;0.10;;;3.90;1.00;226.50;231333.00;;;;5026230;28;20211;-70
2022/03/19 05:53:37;;;;;;;0.10;0.10;;;3.90;1.00;226.50;231333.00;;;;5034622;28;20287;-71
2022/03/19 05:56:06;;;;;;;0.10;0.10;;;3.80;1.00;226.50;231333.00;;;;5033723;28;20195;-71
2022/03/19 05:58:35;;;;;;;0.10;0.10;;;3.80;1.00;226.50;231333.00;;;;5024033;28;20192;-70
2022/03/19 06:01:03;;;;;;;0.10;0.10;;;3.70;1.00;226.50;231333.00;;;;5019788;28;20219;-70
2022/03/19 06:03:31;;;;;;;0.10;0.10;;;3.70;1.00;226.50;231333.00;;;;5020374;28;20229;-70
2022/03/19 06:05:59;;;;;;;0.10;0.10;;;3.60;1.00;226.50;231333.00;;;;5023141;28;20195;-71
2022/03/19 06:08:27;;;;;;;0.10;0.10;;;3.60;1.00;226.50;231333.00;;;;5019092;28;20196;-70
2022/03/19 06:10:56;;;;;;;0.10;0.10;;;3.50;1.00;226.50;231333.00;;;;5017392;28;20265;-70
2022/03/19 06:13:26;;;;;;;0.10;0.10;;;3.60;1.00;226.50;231333.00;;;;5014780;28;20757;-70
2022/03/19 06:15:56;;;;;;;0.10;0.10;;;3.70;1.00;226.50;231333.00;;;;5030100;28;20202;-71
2022/03/19 06:18:24;;;;;;;0.10;0.10;;;3.70;1.00;226.50;231333.00;;;;5022030;28;20246;-72
2022/03/19 06:20:52;;;;;;;0.10;0.10;;;3.80;1.00;226.50;231333.00;;;;5031878;28;20261;-72
2022/03/19 06:23:20;;;;;;;0.10;0.10;;;3.90;1.00;226.50;231333.00;;;;5025304;28;20203;-71
2022/03/19 06:25:48;;;;;;;0.10;0.10;;;3.80;1.00;226.50;231333.00;;;;5026085;28;20195;-70
2022/03/19 06:28:17;;;;;;;0.10;0.10;;;3.70;1.00;226.50;231333.00;;;;5028748;28;20195;-70
2022/03/19 06:30:45;;;;;;;0.10;0.10;;;3.60;1.00;226.50;231333.00;;;;5018892;28;20620;-72
2022/03/19 06:33:19;;;;;;;0.10;0.10;;;3.60;1.00;226.50;231333.00;;;;5020751;28;20531;-70
2022/03/19 06:38:37;;;;;;;0.10;0.10;;;3.60;1.00;226.50;231333.00;;;;5025887;28;20191;-71
2022/03/19 06:41:05;;;;;;;0.10;0.10;;;3.70;1.00;226.50;231333.00;;;;5021691;28;20269;-71
2022/03/19 06:43:34;;;;;;;0.10;0.10;;;3.90;1.00;226.50;231333.00;;;;5020492;28;20230;-71
2022/03/19 06:46:02;;;;;;;0.10;0.10;;;4.10;1.00;226.50;231333.00;;;;5021927;28;20187;-71
2022/03/19 06:48:31;;;;;;;0.10;0.10;;;4.20;1.00;226.50;231333.00;;;;5017699;28;20199;-70
2022/03/19 06:50:59;;;;;;;0.00;0.00;;;4.30;1.00;226.50;231333.00;;;;5020979;28;20588;-70
2022/03/19 06:53:28;;;;;;;0.10;0.10;;;4.40;1.00;226.50;231333.00;;;;5017660;28;20219;-70
2022/03/19 06:55:57;;;;;;;0.10;0.10;;;4.50;1.00;226.50;231333.00;;;;5021911;28;20219;-71
2022/03/19 06:58:25;;;;;;;0.10;0.10;;;4.60;1.00;226.50;231333.00;;;;5030460;28;20241;-70
2022/03/19 07:00:53;;;;;;;0.10;0.10;;;4.70;1.00;226.50;231333.00;;;;5030137;28;20284;-70
2022/03/19 07:03:22;;;;;;;0.10;0.10;;;4.70;1.00;226.50;231333.00;;;;5019345;28;20289;-70
2022/03/19 07:05:51;;;;;;;0.10;0.10;;;4.70;1.00;226.50;231333.00;;;;5019996;28;20235;-70
2022/03/19 07:08:40;;;;;;;0.10;0.10;;;4.70;1.00;226.50;231333.00;;;;5011735;28;20197;-70
2022/03/19 07:11:08;;;;;;;0.10;0.10;;;4.70;1.00;226.50;231333.00;;;;5012666;28;20235;-70
2022/03/19 07:13:37;;;;;;;0.10;0.10;;;4.70;1.00;226.50;231333.00;;;;5013828;28;20216;-71
2022/03/19 07:16:06;;;;;;;0.10;0.10;;;4.70;1.00;226.50;231333.00;;;;5019256;28;20219;-70
2022/03/19 07:18:35;;;;;;;0.10;0.10;;;4.70;1.00;226.50;231333.00;;;;5030419;28;20202;-70
2022/03/19 07:21:05;;;;;;;0.10;0.10;;;4.70;1.00;226.50;231333.00;;;;5018237;28;20215;-72
2022/03/19 07:23:32;;;;;;;0.10;0.10;;;4.70;1.00;226.50;231333.00;;;;5017474;28;20266;-73
2022/03/19 07:26:01;;;;;;;0.10;0.10;;;4.70;1.00;226.50;231333.00;;;;5026977;28;20191;-73
2022/03/19 07:28:29;;;;;;;0.10;0.10;;;4.70;1.00;226.50;231333.00;;;;5037655;28;20191;-73
2022/03/19 07:30:58;;;;;;;0.10;0.10;;;4.70;1.00;226.50;231333.00;;;;5022902;28;20206;-71
2022/03/19 07:33:27;;;;;;;0.10;0.10;;;4.70;1.00;226.50;231333.00;;;;5032270;28;20219;-71
2022/03/19 07:35:57;;;;;;;0.10;0.10;;;4.70;1.00;226.50;231333.00;;;;5028817;28;20203;-71
2022/03/19 07:38:26;;;;;;;0.10;0.10;;;4.70;1.00;226.50;231333.00;;;;5032342;28;20195;-71
2022/03/19 07:43:41;;;;;;;0.10;0.10;;;4.60;1.00;226.50;231333.00;;;;5025098;28;20223;-71
2022/03/19 07:46:09;;;;;;;0.10;0.10;;;4.60;1.00;226.50;231333.00;;;;5021455;28;20557;-71
2022/03/19 07:48:37;;;;;;;0.10;0.10;;;4.60;1.00;226.50;231333.00;;;;5028826;28;20211;-71
2022/03/19 07:51:06;;;;;;;0.10;0.10;;;4.60;1.00;226.50;231333.00;;;;5027998;28;20179;-71
2022/03/19 07:53:37;;;;;;;0.10;0.10;;;4.70;1.00;226.50;231333.00;;;;5017956;28;20223;-71
2022/03/19 07:56:06;;;;;;;0.10;0.10;;;4.70;1.00;226.50;231333.00;;;;5021191;28;20192;-71
2022/03/19 07:58:33;;;;;;;0.10;0.10;;;4.80;1.00;226.50;231333.00;;;;5022360;28;20195;-71
2022/03/19 08:01:01;;;;;;;0.10;0.10;;;4.80;1.00;226.50;231333.00;;;;5022360;28;21056;-71
2022/03/19 08:03:30;;;;;;;0.10;0.10;;;4.80;1.00;226.50;231333.00;;;;5027313;28;20228;-71
2022/03/19 08:05:59;;;;;;;0.10;0.10;;;4.80;1.00;226.50;231333.00;;;;5023487;28;20270;-71
2022/03/19 08:08:27;;;;;;;0.10;0.10;;;4.90;1.00;226.50;231333.00;;;;5025350;28;20195;-71
2022/03/19 08:10:57;;;;;;;0.10;0.10;;;4.80;1.00;226.50;231333.00;;;;5025738;28;20619;-71
2022/03/19 08:13:25;;;;;;;0.10;0.10;;;4.80;1.00;226.50;231333.00;;;;5025866;28;20225;-71
2022/03/19 08:15:53;;;;;;;0.10;0.10;;;4.80;1.00;226.50;231333.00;;;;5023530;28;20199;-71
2022/03/19 08:18:21;;;;;;;0.10;0.10;;;4.80;1.00;226.50;231333.00;;;;5025589;28;20250;-71
2022/03/19 08:20:49;;;;;;;0.10;0.10;;;4.90;1.00;226.50;231333.00;;;;5023358;28;20633;-71
2022/03/19 08:23:19;;;;;;;0.10;0.10;;;4.90;1.00;226.50;231333.00;;;;5005539;28;20266;-71
2022/03/19 08:25:47;;;;;;;0.10;0.10;;;4.90;1.00;226.50;231333.00;;;;5021314;28;20204;-71
2022/03/19 08:28:16;;;;;;;0.10;0.10;;;4.90;1.00;226.50;231333.00;;;;5023150;28;20257;-71
2022/03/19 08:30:44;;;;;;;0.10;0.10;;;5.00;1.00;226.50;231333.00;;;;5004594;28;20199;-71
2022/03/19 08:33:12;;;;;;;0.10;0.10;;;5.10;99.90;226.50;231333.00;;;;5024547;28;20215;-71
2022/03/19 08:35:40;;;;;;;0.00;0.00;;;5.20;99.90;226.50;231333.00;;;;5024872;28;20206;-71
2022/03/19 08:40:54;;;;;;;0.10;0.10;;;5.30;99.90;226.50;231333.00;;;;5025207;28;20211;-71
2022/03/19 08:43:23;;;;;;;0.10;0.10;;;5.40;99.90;226.50;231333.00;;;;5026622;28;20298;-71
2022/03/19 08:45:51;;;;;;;0.10;0.10;;;5.50;99.90;226.50;231333.00;;;;5024945;28;20192;-71
2022/03/19 08:48:19;;;;;;;0.10;0.10;;;5.50;99.90;226.50;231333.00;;;;5018248;28;20195;-71
2022/03/19 08:50:48;;;;;;;0.10;0.10;;;5.60;99.90;226.50;231333.00;;;;5023204;28;20207;-71
2022/03/19 08:53:16;;;;;;;0.10;0.10;;;5.60;99.90;226.50;231333.00;;;;5023546;28;20254;-71
2022/03/19 08:55:46;;;;;;;0.10;0.10;;;5.60;99.90;226.50;231333.00;;;;5015719;28;20196;-71
2022/03/19 08:58:15;;;;;;;0.10;0.10;;;5.60;99.90;226.50;231333.00;;;;5021939;28;20203;-71
2022/03/19 09:00:44;;;;;;;0.00;0.00;;;5.60;99.90;226.50;231333.00;;;;5017757;28;20203;-71
2022/03/19 09:03:12;;;;;;;0.08;0.08;;;5.60;99.90;226.50;231333.00;;;;5020075;28;20211;-71
2022/03/19 09:05:41;;;;;;;0.10;0.10;;;5.60;99.90;226.50;231333.00;;;;5014695;28;20192;-71
2022/03/19 09:08:08;;;;;;;0.10;0.10;;;5.60;99.90;226.50;231333.00;;;;5019077;28;20203;-71
2022/03/19 09:10:36;;;;;;;0.10;0.10;;;5.70;99.90;226.50;231333.00;;;;5018582;28;20305;-70
2022/03/19 09:13:06;;;;;;;0.10;0.10;;;5.70;1.00;226.50;231333.00;;;;5022063;28;20216;-71
2022/03/19 09:15:34;;;;;;;0.10;0.10;;;5.70;1.00;226.50;231333.00;;;;5013026;28;20719;-71
2022/03/19 09:18:05;;;;;;;0.10;0.10;;;5.70;1.00;226.50;231333.00;;;;5020883;28;20218;-71
2022/03/19 09:20:33;;;;;;;0.10;0.10;;;5.80;1.00;226.50;231333.00;;;;5027569;28;20207;-71
2022/03/19 09:23:03;;;;;;;0.10;0.10;;;5.80;1.00;226.50;231333.00;;;;5021958;28;20657;-70
2022/03/19 09:25:31;;;;;;;0.08;0.08;;;5.90;1.00;226.50;231333.00;;;;5021004;28;20187;-71
2022/03/19 09:27:59;;;;;;;0.10;0.10;;;5.90;1.00;226.50;231333.00;;;;5020812;28;20188;-71
2022/03/19 09:30:27;;;;;;;0.10;0.10;;;5.90;1.00;226.50;231333.00;;;;5021427;28;20207;-71
2022/03/19 09:32:57;;;;;;;0.10;0.10;;;5.90;1.00;226.50;231333.00;;;;5021083;28;20697;-71
2022/03/19 09:35:46;;;;;;;0.10;0.10;;;5.90;1.00;226.50;231333.00;;;;5021674;28;20246;-71
2022/03/19 09:38:15;;;;;;;0.10;0.10;;;5.90;1.00;226.50;231333.00;;;;5022217;28;20679;-71
2022/03/19 09:40:43;;;;;;;0.10;0.10;;;5.90;1.00;226.50;231333.00;;;;5020577;28;20195;-71
2022/03/19 09:43:11;;;;;;;0.03;0.03;;;5.90;1.00;226.50;231333.00;;;;5021047;28;20222;-71
2022/03/19 09:45:39;;;;;;;0.05;0.05;;;6.00;1.00;226.50;231333.00;;;;5021046;28;20199;-71
2022/03/19 09:48:08;;;;;;;0.00;0.00;;;6.10;1.00;226.50;231333.00;;;;5020921;28;20258;-71
2022/03/19 09:50:36;;;;;;;0.10;0.10;;;6.20;1.00;226.50;231333.00;;;;5020884;28;20191;-70
2022/03/19 09:53:07;;;;;;;0.10;0.10;;;6.10;1.00;226.50;231333.00;;;;5021111;28;20215;-73
2022/03/19 09:55:38;;;;;;;0.10;0.10;;;6.10;1.00;226.50;231333.00;;;;5020195;28;20204;-71
2022/03/19 09:58:06;;;;;;;0.10;0.10;;;6.10;1.00;226.50;231333.00;;;;5021581;28;20723;-72
2022/03/19 10:00:35;;;;;;;0.10;0.10;;;6.20;1.00;226.50;231333.00;;;;5020894;28;20188;-73
2022/03/19 10:03:11;;;;;;;0.10;0.10;;;6.20;1.00;226.50;231333.00;;;;5020950;28;20247;-71
2022/03/19 10:08:39;;;;;;;0.10;0.10;;;6.30;99.90;226.50;231333.00;;;;5019954;28;20203;-71
2022/03/19 10:11:09;;;;;;;0.10;0.10;;;6.30;99.90;226.50;231333.00;;;;5019703;28;20202;-71
2022/03/19 10:13:38;;;;;;;0.10;0.10;;;6.40;99.90;226.50;231333.00;;;;5021326;28;20673;-71
2022/03/19 10:16:07;;;;;;;0.10;0.10;;;6.50;1.00;226.50;231333.00;;;;5021028;28;20258;-73
2022/03/19 10:18:35;;;;;;;0.10;0.10;;;6.70;1.00;226.50;231333.00;;;;5021500;28;20203;-73
2022/03/19 10:21:14;;;;;;;0.00;0.00;;;6.70;1.00;226.50;231333.00;;;;5026719;28;20726;-72
2022/03/19 10:23:44;;;;;;;0.10;0.10;;;6.80;1.00;226.50;231333.00;;;;5024837;28;20709;-72
2022/03/19 10:26:25;;;;;;;0.10;0.10;;;6.80;1.00;226.50;231333.00;;;;5018912;28;20715;-72
2022/03/19 10:29:01;;;;;;;0.10;0.10;;;6.80;1.00;226.50;231333.00;;;;5012362;28;20560;-72
2022/03/19 10:31:34;;;;;;;0.10;0.10;;;6.70;1.00;226.50;231333.00;;;;5018481;28;20199;-73
2022/03/19 10:34:05;;;;;;;0.10;0.10;;;6.80;1.00;226.50;231333.00;;;;5016437;28;20192;-73
2022/03/19 10:36:35;;;;;;;0.10;0.10;;;6.90;1.00;226.50;231333.00;;;;5026226;28;20211;-73
2022/03/19 10:39:11;;;;;;;0.10;0.10;;;7.00;1.00;226.50;231333.00;;;;5023279;28;20238;-73
2022/03/19 10:41:40;;;;;;;0.10;0.10;;;7.10;99.90;226.50;231333.00;;;;5015260;28;20194;-73
2022/03/19 10:44:14;;;;;;;0.00;0.00;;;7.20;99.90;226.50;231333.00;;;;5030827;28;20226;-73
2022/03/19 10:46:49;;;;;;;0.10;0.10;;;7.10;1.00;226.50;231333.00;;;;5020795;28;20192;-73
2022/03/19 10:49:19;;;;;;;0.10;0.10;;;7.10;1.00;226.50;231333.00;;;;5024186;28;20260;-73
2022/03/19 10:51:50;;;;;;;0.10;0.10;;;7.10;1.00;226.50;231333.00;;;;5025665;28;20231;-73
2022/03/19 10:54:20;;;;;;;0.10;0.10;;;7.10;99.90;226.50;231333.00;;;;5030797;28;20536;-73
2022/03/19 10:56:49;;;;;;;0.10;0.10;;;7.00;99.90;226.50;231333.00;;;;5022838;28;20255;-73
2022/03/19 10:59:19;;;;;;;0.10;0.10;;;7.00;1.00;226.50;231333.00;;;;5017640;28;20271;-73
2022/03/19 11:01:49;;;;;;;0.10;0.10;;;7.00;1.00;226.50;231333.00;;;;5033825;28;20281;-73
2022/03/19 11:04:20;;;;;;;0.10;0.10;;;7.10;1.00;226.50;231333.00;;;;5020989;28;20598;-72
2022/03/19 11:06:52;;;;;;;0.00;0.00;;;7.10;1.00;226.50;231333.00;;;;5025840;28;20199;-72
2022/03/19 11:09:27;;;;;;;0.10;0.10;;;7.10;99.90;226.50;231333.00;;;;5024019;28;20196;-73
2022/03/19 11:11:58;;;;;;;0.10;0.10;;;7.10;99.90;226.50;231333.00;;;;5025857;28;20277;-73
2022/03/19 11:14:30;;;;;;;0.00;0.00;;;7.10;1.00;226.50;231333.00;;;;5032746;28;20199;-73
2022/03/19 11:17:27;;;;;;;0.10;0.10;;;7.00;1.00;226.50;231333.00;;;;5034078;28;20661;-72
2022/03/19 11:19:58;;;;;;;0.10;0.10;;;7.00;99.90;226.50;231333.00;;;;5027388;28;21255;-72
2022/03/19 11:22:28;;;;;;;0.00;0.00;;;7.00;99.90;226.50;231333.00;;;;5024699;28;20254;-72
2022/03/19 11:25:09;;;;;;;0.10;0.10;;;7.00;1.00;226.50;231333.00;;;;5022339;28;20199;-72